Observation data for White River Lake on 11/17/2019      Previous  Date       Current Mesonet Observations  Soil Data  Daily Summary Page  Observations in Plain Language
KWVS 170600Z 23004KT 09/04 A2996 RMK A01 T00900040  RH  072%=      5-min Rain = 0
KWVS 170605Z 23005KT 09/04 A2996 RMK A01 T00920040  RH  071%=      5-min Rain = 0
KWVS 170610Z 22005KT 09/04 A2996 RMK A01 T00910039  RH  071%=      5-min Rain = 0
KWVS 170615Z 23006KT 09/04 A2996 RMK A01 T00910040  RH  072%=      5-min Rain = 0
KWVS 170620Z 22006KT 09/04 A2996 RMK A01 T00900040  RH  072%=      5-min Rain = 0
KWVS 170625Z 22006KT 09/04 A2996 RMK A01 T00890040  RH  072%=      5-min Rain = 0
KWVS 170630Z 22005KT 09/04 A2996 RMK A01 T00890040  RH  073%=      5-min Rain = 0
KWVS 170635Z 23004KT 09/04 A2997 RMK A01 T00890040  RH  073%=      5-min Rain = 0
KWVS 170640Z 27004KT 09/04 A2997 RMK A01 T00890040  RH  073%=      5-min Rain = 0
KWVS 170645Z 28004KT 09/04 A2997 RMK A01 T00850039  RH  074%=      5-min Rain = 0
KWVS 170650Z 27005KT 08/04 A2997 RMK A01 T00820039  RH  076%=      5-min Rain = 0
KWVS 170655Z 24006KT 09/04 A2997 RMK A01 T00870041  RH  075%=      5-min Rain = 0
KWVS 170700Z 22006KT 09/04 A2997 RMK A01 T00910042  RH  073%=      5-min Rain = 0
KWVS 170705Z 23006KT 09/04 A2997 RMK A01 T00900042  RH  073%=      5-min Rain = 0
KWVS 170710Z 23006KT 09/04 A2997 RMK A01 T00890041  RH  073%=      5-min Rain = 0
KWVS 170715Z 23005KT 09/04 A2996 RMK A01 T00890041  RH  073%=      5-min Rain = 0
KWVS 170720Z 24004KT 09/04 A2997 RMK A01 T00880041  RH  074%=      5-min Rain = 0
KWVS 170725Z 27003KT 09/04 A2997 RMK A01 T00870040  RH  074%=      5-min Rain = 0
KWVS 170730Z 30003KT 08/04 A2997 RMK A01 T00810038  RH  076%=      5-min Rain = 0
KWVS 170735Z 33003KT 08/04 A2997 RMK A01 T00760036  RH  077%=      5-min Rain = 0
KWVS 170740Z 33002KT 08/04 A2996 RMK A01 T00760038  RH  078%=      5-min Rain = 0
KWVS 170745Z 30003KT 08/04 A2996 RMK A01 T00750036  RH  078%=      5-min Rain = 0
KWVS 170750Z 28003KT 08/04 A2996 RMK A01 T00750037  RH  078%=      5-min Rain = 0
KWVS 170755Z 28003KT 07/04 A2996 RMK A01 T00720035  RH  079%=      5-min Rain = 0
KWVS 170800Z 29003KT 07/04 A2996 RMK A01 T00690035  RH  080%=      5-min Rain = 0
KWVS 170805Z 26004KT 07/03 A2996 RMK A01 T00670034  RH  081%=      5-min Rain = 0
KWVS 170810Z 26006KT 07/04 A2996 RMK A01 T00690036  RH  081%=      5-min Rain = 0
KWVS 170815Z 26006KT 07/04 A2996 RMK A01 T00690035  RH  080%=      5-min Rain = 0
KWVS 170820Z 24007KT 07/04 A2995 RMK A01 T00680035  RH  081%=      5-min Rain = 0
KWVS 170825Z 25007KT 07/04 A2995 RMK A01 T00690037  RH  082%=      5-min Rain = 0
KWVS 170830Z 25007KT 07/04 A2995 RMK A01 T00720038  RH  081%=      5-min Rain = 0
KWVS 170835Z 26005KT 07/04 A2995 RMK A01 T00720038  RH  080%=      5-min Rain = 0
KWVS 170840Z 26006KT 07/04 A2995 RMK A01 T00720037  RH  080%=      5-min Rain = 0
KWVS 170845Z 27006KT 07/04 A2995 RMK A01 T00740038  RH  080%=      5-min Rain = 0
KWVS 170850Z 28005KT 07/03 A2995 RMK A01 T00660033  RH  081%=      5-min Rain = 0
KWVS 170855Z 29006KT 06/03 A2995 RMK A01 T00600031  RH  083%=      5-min Rain = 0
KWVS 170900Z 29006KT 06/03 A2995 RMK A01 T00590032  RH  085%=      5-min Rain = 0
KWVS 170905Z 27005KT 06/03 A2995 RMK A01 T00600033  RH  084%=      5-min Rain = 0
KWVS 170910Z 28006KT 06/03 A2995 RMK A01 T00600033  RH  084%=      5-min Rain = 0
KWVS 170915Z 27005KT 06/03 A2995 RMK A01 T00620034  RH  084%=      5-min Rain = 0
KWVS 170920Z 28005KT 06/03 A2995 RMK A01 T00620034  RH  083%=      5-min Rain = 0
KWVS 170925Z 28004KT 06/03 A2996 RMK A01 T00590032  RH  084%=      5-min Rain = 0
KWVS 170930Z 29004KT 06/03 A2996 RMK A01 T00580031  RH  084%=      5-min Rain = 0
KWVS 170935Z 29005KT 06/03 A2996 RMK A01 T00570031  RH  085%=      5-min Rain = 0
KWVS 170940Z 31005KT 06/03 A2997 RMK A01 T00580031  RH  085%=      5-min Rain = 0
KWVS 170945Z 34007KT 05/03 A2997 RMK A01 T00530027  RH  085%=      5-min Rain = 0
KWVS 170950Z 34006KT 04/02 A2997 RMK A01 T00440023  RH  087%=      5-min Rain = 0
KWVS 170955Z 34006KT 04/02 A2997 RMK A01 T00410022  RH  089%=      5-min Rain = 0
KWVS 171000Z 34007KT 04/02 A2997 RMK A01 T00430024  RH  089%=      5-min Rain = 0
KWVS 171005Z 34010KT 04/02 A2998 RMK A01 T00400022  RH  089%=      5-min Rain = 0
KWVS 171010Z 34010KT 04/02 A2998 RMK A01 T00400023  RH  090%=      5-min Rain = 0
KWVS 171015Z 34011KT 04/02 A2998 RMK A01 T00390022  RH  090%=      5-min Rain = 0
KWVS 171020Z 34013KT 04/02 A2999 RMK A01 T00390022  RH  090%=      5-min Rain = 0
KWVS 171025Z 35013KT 04/03 A2999 RMK A01 T00430027  RH  090%=      5-min Rain = 0
KWVS 171030Z 35015KT 05/03 A2999 RMK A01 T00540031  RH  087%=      5-min Rain = 0
KWVS 171035Z 35015KT 06/03 A2999 RMK A01 T00590029  RH  082%=      5-min Rain = 0
KWVS 171040Z 35014KT 06/03 A30 RMK A01 T00570026  RH  082%=      5-min Rain = 0
KWVS 171045Z 36013KT 06/03 A30 RMK A01 T00570025  RH  081%=      5-min Rain = 0
KWVS 171050Z 36014KT 06/03 A30 RMK A01 T00620025  RH  079%=      5-min Rain = 0
KWVS 171055Z 36015KT 06/02 A30 RMK A01 T00640023  RH  076%=      5-min Rain = 0
KWVS 171100Z 35015KT 07/02 A3001 RMK A01 T00680021  RH  073%=      5-min Rain = 0
KWVS 171105Z 35016KT 07/02 A3001 RMK A01 T00710019  RH  071%=      5-min Rain = 0
KWVS 171110Z 36015G23KT 07/02 A3001 RMK A01 T00730016  RH  068%=      5-min Rain = 0
KWVS 171115Z 36016KT 08/01 A3001 RMK A01 T00790012  RH  063%=      5-min Rain = 0
KWVS 171120Z 00017G27KT 08/01 A3001 RMK A01 T00810009  RH  061%=      5-min Rain = 0
KWVS 171125Z 00018G25KT 08/01 A30 RMK A01 T00840006  RH  059%=      5-min Rain = 0
KWVS 171130Z 36020G30KT 09/00 A30 RMK A01 T00870004  RH  057%=      5-min Rain = 0
KWVS 171135Z 36025G32KT 09/00 A30 RMK A01 T00900003  RH  055%=      5-min Rain = 0
KWVS 171140Z 36024G30KT 09/00 A30 RMK A01 T00910002  RH  054%=      5-min Rain = 0
KWVS 171145Z 36027G33KT 09/00 A30 RMK A01 T00920001  RH  054%=      5-min Rain = 0
KWVS 171150Z 35026G36KT 09/00 A30 RMK A01 T00910000  RH  054%=      5-min Rain = 0
KWVS 171155Z 36025G31KT 09/M00 A30 RMK A01 T00911001  RH  053%=      5-min Rain = 0
KWVS 171200Z 36024G33KT 09/M00 A30 RMK A01 T00901001  RH  053%=      5-min Rain = 0
KWVS 171205Z 36025G33KT 09/M00 A30 RMK A01 T00901001  RH  053%=      5-min Rain = 0
KWVS 171210Z 36024G33KT 09/M00 A3001 RMK A01 T00901001  RH  053%=      5-min Rain = 0
KWVS 171215Z 36023G30KT 09/M00 A3002 RMK A01 T00891002  RH  054%=      5-min Rain = 0
KWVS 171220Z 36022G27KT 09/M00 A3002 RMK A01 T00881001  RH  054%=      5-min Rain = 0
KWVS 171225Z 36024G31KT 09/M00 A3002 RMK A01 T00891001  RH  054%=      5-min Rain = 0
KWVS 171230Z 36024G30KT 09/M00 A3003 RMK A01 T00881001  RH  054%=      5-min Rain = 0
KWVS 171235Z 36021G29KT 09/M00 A3003 RMK A01 T00871001  RH  055%=      5-min Rain = 0
KWVS 171240Z 35021G30KT 09/M00 A3004 RMK A01 T00861001  RH  055%=      5-min Rain = 0
KWVS 171245Z 35022G29KT 09/M00 A3004 RMK A01 T00851001  RH  055%=      5-min Rain = 0
KWVS 171250Z 35023G30KT 08/00 A3005 RMK A01 T008400-0  RH  056%=      5-min Rain = 0
KWVS 171255Z 35022G31KT 08/00 A3005 RMK A01 T00840000  RH  056%=      5-min Rain = 0
KWVS 171300Z 35023G29KT 08/00 A3005 RMK A01 T00830001  RH  057%=      5-min Rain = 0
KWVS 171305Z 35023G31KT 08/00 A3006 RMK A01 T00830001  RH  057%=      5-min Rain = 0
KWVS 171310Z 35024G31KT 08/00 A3006 RMK A01 T00830001  RH  057%=      5-min Rain = 0
KWVS 171315Z 35024G30KT 08/00 A3006 RMK A01 T00820002  RH  057%=      5-min Rain = 0
KWVS 171320Z 35023G29KT 08/00 A3007 RMK A01 T00820002  RH  058%=      5-min Rain = 0
KWVS 171325Z 35023G32KT 08/00 A3007 RMK A01 T00820003  RH  058%=      5-min Rain = 0
KWVS 171330Z 35023G30KT 08/00 A3007 RMK A01 T00810003  RH  059%=      5-min Rain = 0
KWVS 171335Z 35023G34KT 08/00 A3007 RMK A01 T00810004  RH  059%=      5-min Rain = 0
KWVS 171340Z 35024G31KT 08/00 A3008 RMK A01 T00820004  RH  059%=      5-min Rain = 0
KWVS 171345Z 35022G30KT 08/01 A3008 RMK A01 T00820005  RH  059%=      5-min Rain = 0
KWVS 171350Z 35021G31KT 08/01 A3009 RMK A01 T00810005  RH  059%=      5-min Rain = 0
KWVS 171355Z 35023G30KT 08/01 A3009 RMK A01 T00820006  RH  059%=      5-min Rain = 0
KWVS 171400Z 35023G31KT 08/01 A3009 RMK A01 T00830006  RH  059%=      5-min Rain = 0
KWVS 171405Z 35023G31KT 08/01 A301 RMK A01 T00840007  RH  059%=      5-min Rain = 0
KWVS 171410Z 35022G34KT 08/01 A301 RMK A01 T00840007  RH  059%=      5-min Rain = 0
KWVS 171415Z 36023G31KT 09/01 A301 RMK A01 T00850008  RH  059%=      5-min Rain = 0
KWVS 171420Z 36021G28KT 09/01 A301 RMK A01 T00870009  RH  059%=      5-min Rain = 0
KWVS 171425Z 36024G32KT 09/01 A301 RMK A01 T00880010  RH  059%=      5-min Rain = 0
KWVS 171430Z 00024G33KT 09/01 A301 RMK A01 T00900011  RH  058%=      5-min Rain = 0
KWVS 171435Z 00026G34KT 09/01 A3011 RMK A01 T00920011  RH  058%=      5-min Rain = 0
KWVS 171440Z 36023G32KT 09/01 A3011 RMK A01 T00940012  RH  057%=      5-min Rain = 0
KWVS 171445Z 01022G31KT 10/01 A3012 RMK A01 T00960012  RH  057%=      5-min Rain = 0
KWVS 171450Z 00022G30KT 10/01 A3012 RMK A01 T00980013  RH  057%=      5-min Rain = 0
KWVS 171455Z 00023G32KT 10/01 A3012 RMK A01 T00990014  RH  056%=      5-min Rain = 0
KWVS 171500Z 00028G37KT 10/01 A3012 RMK A01 T00990013  RH  056%=      5-min Rain = 0
KWVS 171505Z 00024G34KT 10/01 A3012 RMK A01 T01010014  RH  056%=      5-min Rain = 0
KWVS 171510Z 36024G31KT 10/01 A3013 RMK A01 T01020014  RH  055%=      5-min Rain = 0
KWVS 171515Z 36023G29KT 10/01 A3013 RMK A01 T01030014  RH  055%=      5-min Rain = 0
KWVS 171520Z 00022G29KT 11/02 A3013 RMK A01 T01050015  RH  054%=      5-min Rain = 0
KWVS 171525Z 36022G28KT 11/01 A3013 RMK A01 T01050014  RH  054%=      5-min Rain = 0
KWVS 171530Z 00022G30KT 11/02 A3013 RMK A01 T01080015  RH  053%=      5-min Rain = 0
KWVS 171535Z 00023G30KT 11/02 A3014 RMK A01 T01090015  RH  053%=      5-min Rain = 0
KWVS 171540Z 00024G31KT 11/02 A3014 RMK A01 T01090015  RH  053%=      5-min Rain = 0
KWVS 171545Z 00023G28KT 11/02 A3014 RMK A01 T01100015  RH  053%=      5-min Rain = 0
KWVS 171550Z 01020G25KT 11/02 A3014 RMK A01 T01140017  RH  052%=      5-min Rain = 0
KWVS 171555Z 01022G31KT 12/02 A3014 RMK A01 T01150016  RH  052%=      5-min Rain = 0
KWVS 171600Z 01024G29KT 12/02 A3014 RMK A01 T01150016  RH  051%=      5-min Rain = 0
KWVS 171605Z 01025KT 12/02 A3014 RMK A01 T01160016  RH  051%=      5-min Rain = 0
KWVS 171610Z 01024G30KT 12/02 A3014 RMK A01 T01180016  RH  051%=      5-min Rain = 0
KWVS 171615Z 01024G30KT 12/02 A3014 RMK A01 T01180016  RH  050%=      5-min Rain = 0
KWVS 171620Z 01023G30KT 12/02 A3014 RMK A01 T01200016  RH  050%=      5-min Rain = 0
KWVS 171625Z 00022G29KT 12/02 A3014 RMK A01 T01210016  RH  049%=      5-min Rain = 0
KWVS 171630Z 01021G26KT 12/02 A3014 RMK A01 T01220016  RH  049%=      5-min Rain = 0
KWVS 171635Z 02022G27KT 12/02 A3014 RMK A01 T01230016  RH  049%=      5-min Rain = 0
KWVS 171640Z 01022G29KT 12/02 A3014 RMK A01 T01240016  RH  048%=      5-min Rain = 0
KWVS 171645Z 01020G27KT 13/02 A3014 RMK A01 T01250017  RH  048%=      5-min Rain = 0
KWVS 171650Z 00022KT 13/02 A3014 RMK A01 T01270017  RH  048%=      5-min Rain = 0
KWVS 171655Z 01021G26KT 13/02 A3014 RMK A01 T01280017  RH  047%=      5-min Rain = 0
KWVS 171700Z 01020G26KT 13/02 A3014 RMK A01 T01300017  RH  047%=      5-min Rain = 0
KWVS 171705Z 01020G26KT 13/02 A3014 RMK A01 T01300016  RH  047%=      5-min Rain = 0
KWVS 171710Z 00019G25KT 13/02 A3014 RMK A01 T01330017  RH  046%=      5-min Rain = 0
KWVS 171715Z 00019G24KT 13/02 A3013 RMK A01 T01320017  RH  046%=      5-min Rain = 0
KWVS 171720Z 00018KT 14/02 A3013 RMK A01 T01350019  RH  046%=      5-min Rain = 0
KWVS 171725Z 00020G26KT 14/02 A3013 RMK A01 T01360017  RH  045%=      5-min Rain = 0
KWVS 171730Z 01018G25KT 14/02 A3013 RMK A01 T01380018  RH  045%=      5-min Rain = 0
KWVS 171735Z 00018G23KT 14/02 A3014 RMK A01 T01400018  RH  044%=      5-min Rain = 0
KWVS 171740Z 00018G24KT 14/02 A3014 RMK A01 T01390018  RH  044%=      5-min Rain = 0
KWVS 171745Z 01016KT 14/02 A3013 RMK A01 T01420019  RH  044%=      5-min Rain = 0
KWVS 171750Z 00015G20KT 14/02 A3013 RMK A01 T01430019  RH  044%=      5-min Rain = 0
KWVS 171755Z 01015G20KT 15/02 A3013 RMK A01 T01450019  RH  043%=      5-min Rain = 0
KWVS 171800Z 01014G19KT 15/02 A3013 RMK A01 T01460018  RH  043%=      5-min Rain = 0
KWVS 171805Z 01014G19KT 15/02 A3013 RMK A01 T01460018  RH  043%=      5-min Rain = 0
KWVS 171810Z 00014KT 15/02 A3013 RMK A01 T01460018  RH  043%=      5-min Rain = 0
KWVS 171815Z 01012KT 15/02 A3013 RMK A01 T01490020  RH  042%=      5-min Rain = 0
KWVS 171820Z 35012G19KT 15/02 A3013 RMK A01 T01510020  RH  042%=      5-min Rain = 0
KWVS 171825Z 34013G21KT 15/02 A3013 RMK A01 T01490019  RH  042%=      5-min Rain = 0
KWVS 171830Z 35012KT 16/02 A3012 RMK A01 T01560021  RH  041%=      5-min Rain = 0
KWVS 171835Z 35011G17KT 15/02 A3012 RMK A01 T01540020  RH  041%=      5-min Rain = 0
KWVS 171840Z 34013KT 15/02 A3012 RMK A01 T01540020  RH  041%=      5-min Rain = 0
KWVS 171845Z 35011KT 15/02 A3012 RMK A01 T01540020  RH  041%=      5-min Rain = 0
KWVS 171850Z 36013G20KT 16/02 A3012 RMK A01 T01580021  RH  040%=      5-min Rain = 0
KWVS 171855Z 01013G18KT 16/02 A3011 RMK A01 T01560020  RH  040%=      5-min Rain = 0
KWVS 171900Z 36015KT 16/02 A3011 RMK A01 T01590020  RH  040%=      5-min Rain = 0
KWVS 171905Z 01012G18KT 16/02 A3011 RMK A01 T01600021  RH  040%=      5-min Rain = 0
KWVS 171910Z 00013G20KT 16/02 A3011 RMK A01 T01610021  RH  040%=      5-min Rain = 0
KWVS 171915Z 00015KT 16/02 A3011 RMK A01 T01600019  RH  039%=      5-min Rain = 0
KWVS 171920Z 36013G18KT 16/02 A3011 RMK A01 T01610020  RH  039%=      5-min Rain = 0
KWVS 171925Z 01014G19KT 16/02 A301 RMK A01 T01630020  RH  039%=      5-min Rain = 0
KWVS 171930Z 02012G18KT 17/02 A301 RMK A01 T01670022  RH  038%=      5-min Rain = 0
KWVS 171935Z 02014KT 17/02 A3011 RMK A01 T01650021  RH  038%=      5-min Rain = 0
KWVS 171940Z 00016KT 17/02 A301 RMK A01 T01660022  RH  038%=      5-min Rain = 0
KWVS 171945Z 00015G21KT 17/02 A301 RMK A01 T01650022  RH  039%=      5-min Rain = 0
KWVS 171950Z 35015KT 17/02 A301 RMK A01 T01650021  RH  039%=      5-min Rain = 0
KWVS 171955Z 01013KT 17/02 A301 RMK A01 T01660022  RH  038%=      5-min Rain = 0
KWVS 172000Z 01013KT 17/02 A301 RMK A01 T01700022  RH  038%=      5-min Rain = 0
KWVS 172005Z 03012KT 17/02 A301 RMK A01 T01700022  RH  038%=      5-min Rain = 0
KWVS 172010Z 02014G19KT 17/02 A301 RMK A01 T01680022  RH  038%=      5-min Rain = 0
KWVS 172015Z 02013KT 17/02 A301 RMK A01 T01680021  RH  038%=      5-min Rain = 0
KWVS 172020Z 35010G15KT 17/02 A3009 RMK A01 T01710024  RH  038%=      5-min Rain = 0
KWVS 172025Z 01008G16KT 17/02 A3009 RMK A01 T01710023  RH  038%=      5-min Rain = 0
KWVS 172030Z 02010KT 17/02 A3009 RMK A01 T01720022  RH  037%=      5-min Rain = 0
KWVS 172035Z 02007G12KT 17/02 A3008 RMK A01 T01720022  RH  037%=      5-min Rain = 0
KWVS 172040Z 02010G15KT 17/02 A3008 RMK A01 T01730020  RH  036%=      5-min Rain = 0
KWVS 172045Z 01010G15KT 17/02 A3008 RMK A01 T01730021  RH  037%=      5-min Rain = 0
KWVS 172050Z 02010KT 17/02 A3008 RMK A01 T01680018  RH  037%=      5-min Rain = 0
KWVS 172055Z 36007KT 17/02 A3008 RMK A01 T01680019  RH  037%=      5-min Rain = 0
KWVS 172100Z 34008G13KT 17/02 A3008 RMK A01 T01680019  RH  037%=      5-min Rain = 0
KWVS 172105Z 00010KT 17/02 A3008 RMK A01 T01710019  RH  037%=      5-min Rain = 0
KWVS 172110Z 04008KT 17/02 A3008 RMK A01 T01680018  RH  037%=      5-min Rain = 0
KWVS 172115Z 00008G13KT 17/02 A3008 RMK A01 T01690019  RH  037%=      5-min Rain = 0
KWVS 172120Z 36008KT 17/02 A3007 RMK A01 T01700017  RH  036%=      5-min Rain = 0
KWVS 172125Z 01008KT 17/01 A3007 RMK A01 T01680014  RH  036%=      5-min Rain = 0
KWVS 172130Z 02006KT 17/02 A3007 RMK A01 T01680016  RH  036%=      5-min Rain = 0
KWVS 172135Z 02005KT 17/01 A3007 RMK A01 T01670014  RH  036%=      5-min Rain = 0
KWVS 172140Z 36003KT 17/01 A3007 RMK A01 T01680014  RH  036%=      5-min Rain = 0
KWVS 172145Z 35007KT 17/02 A3007 RMK A01 T01670016  RH  037%=      5-min Rain = 0
KWVS 172150Z 36006KT 17/02 A3007 RMK A01 T01660018  RH  037%=      5-min Rain = 0
KWVS 172155Z 00005KT 17/02 A3008 RMK A01 T01650017  RH  037%=      5-min Rain = 0
KWVS 172200Z 32003KT 17/02 A3008 RMK A01 T01660017  RH  037%=      5-min Rain = 0
KWVS 172205Z 32006KT 17/02 A3008 RMK A01 T01670016  RH  037%=      5-min Rain = 0
KWVS 172210Z 34005G10KT 17/02 A3007 RMK A01 T01670017  RH  037%=      5-min Rain = 0
KWVS 172215Z 02007KT 17/02 A3007 RMK A01 T01650017  RH  038%=      5-min Rain = 0
KWVS 172220Z 02005KT 17/02 A3007 RMK A01 T01650017  RH  037%=      5-min Rain = 0
KWVS 172225Z 34004KT 16/02 A3007 RMK A01 T01630015  RH  037%=      5-min Rain = 0
KWVS 172230Z 33005KT 16/02 A3007 RMK A01 T01630016  RH  037%=      5-min Rain = 0
KWVS 172235Z 36005KT 16/01 A3007 RMK A01 T01620014  RH  037%=      5-min Rain = 0
KWVS 172240Z 35005KT 16/01 A3008 RMK A01 T01610014  RH  037%=      5-min Rain = 0
KWVS 172245Z 35005KT 16/01 A3007 RMK A01 T01600014  RH  038%=      5-min Rain = 0
KWVS 172250Z 35004KT 16/01 A3007 RMK A01 T01600014  RH  038%=      5-min Rain = 0
KWVS 172255Z 35004KT 16/02 A3007 RMK A01 T01590015  RH  038%=      5-min Rain = 0
KWVS 172300Z 36005KT 16/02 A3007 RMK A01 T01580016  RH  039%=      5-min Rain = 0
KWVS 172305Z 00005KT 16/02 A3007 RMK A01 T01550016  RH  039%=      5-min Rain = 0
KWVS 172310Z 35005KT 15/02 A3007 RMK A01 T01530017  RH  040%=      5-min Rain = 0
KWVS 172315Z 35005KT 15/02 A3007 RMK A01 T01490017  RH  041%=      5-min Rain = 0
KWVS 172320Z 35004KT 15/02 A3007 RMK A01 T01460017  RH  042%=      5-min Rain = 0
KWVS 172325Z 35004KT 14/02 A3007 RMK A01 T01420017  RH  043%=      5-min Rain = 0
KWVS 172330Z 35004KT 14/02 A3007 RMK A01 T01380016  RH  044%=      5-min Rain = 0
KWVS 172335Z 35005KT 14/01 A3007 RMK A01 T01350014  RH  045%=      5-min Rain = 0
KWVS 172340Z 35005KT 13/01 A3008 RMK A01 T01310014  RH  046%=      5-min Rain = 0
KWVS 172345Z 35005KT 13/01 A3008 RMK A01 T01290013  RH  046%=      5-min Rain = 0
KWVS 172350Z 35006KT 13/01 A3008 RMK A01 T01280013  RH  046%=      5-min Rain = 0
KWVS 172355Z 35005KT 13/01 A3008 RMK A01 T01260012  RH  046%=      5-min Rain = 0
KWVS 180000Z 36005KT 13/01 A3008 RMK A01 T01260012  RH  046%=      5-min Rain = 0
KWVS 180005Z 36004KT 13/01 A3008 RMK A01 T01250012  RH  047%=      5-min Rain = 0
KWVS 180010Z 35004KT 12/01 A3008 RMK A01 T01230012  RH  047%=      5-min Rain = 0
KWVS 180015Z 35005KT 12/01 A3008 RMK A01 T01200012  RH  048%=      5-min Rain = 0
KWVS 180020Z 35004KT 11/01 A3009 RMK A01 T01140012  RH  050%=      5-min Rain = 0
KWVS 180025Z 34004KT 11/01 A3009 RMK A01 T01120012  RH  051%=      5-min Rain = 0
KWVS 180030Z 35005KT 11/01 A3009 RMK A01 T01100013  RH  052%=      5-min Rain = 0
KWVS 180035Z 35005KT 11/01 A3009 RMK A01 T01070013  RH  053%=      5-min Rain = 0
KWVS 180040Z 35004KT 11/01 A3009 RMK A01 T01080013  RH  052%=      5-min Rain = 0
KWVS 180045Z 35004KT 11/01 A3009 RMK A01 T01070013  RH  053%=      5-min Rain = 0
KWVS 180050Z 35005KT 11/01 A3009 RMK A01 T01050013  RH  054%=      5-min Rain = 0
KWVS 180055Z 35004KT 11/01 A3009 RMK A01 T01050013  RH  054%=      5-min Rain = 0
KWVS 180100Z 35004KT 11/01 A3009 RMK A01 T01070012  RH  053%=      5-min Rain = 0
KWVS 180105Z 35004KT 11/01 A3009 RMK A01 T01060012  RH  053%=      5-min Rain = 0
KWVS 180110Z 35003KT 11/01 A3009 RMK A01 T01060012  RH  053%=      5-min Rain = 0
KWVS 180115Z 34004KT 11/01 A3009 RMK A01 T01080011  RH  052%=      5-min Rain = 0
KWVS 180120Z 34004KT 11/01 A3009 RMK A01 T01080011  RH  052%=      5-min Rain = 0
KWVS 180125Z 34004KT 11/01 A3009 RMK A01 T01090011  RH  052%=      5-min Rain = 0
KWVS 180130Z 35004KT 11/01 A3009 RMK A01 T01080011  RH  052%=      5-min Rain = 0
KWVS 180135Z 35004KT 11/01 A3009 RMK A01 T01070011  RH  052%=      5-min Rain = 0
KWVS 180140Z 35004KT 11/01 A3009 RMK A01 T01050011  RH  053%=      5-min Rain = 0
KWVS 180145Z 34003KT 11/01 A3009 RMK A01 T01070011  RH  052%=      5-min Rain = 0
KWVS 180150Z 34004KT 11/01 A301 RMK A01 T01090011  RH  052%=      5-min Rain = 0
KWVS 180155Z 34003KT 11/01 A301 RMK A01 T01080011  RH  052%=      5-min Rain = 0
KWVS 180200Z 34004KT 11/01 A301 RMK A01 T01100011  RH  051%=      5-min Rain = 0
KWVS 180205Z 34004KT 11/01 A301 RMK A01 T01110011  RH  051%=      5-min Rain = 0
KWVS 180210Z 34004KT 11/01 A301 RMK A01 T01100011  RH  051%=      5-min Rain = 0
KWVS 180215Z 34005KT 11/01 A3011 RMK A01 T01090011  RH  051%=      5-min Rain = 0
KWVS 180220Z 34005KT 11/01 A3011 RMK A01 T01060011  RH  053%=      5-min Rain = 0
KWVS 180225Z 34005KT 10/01 A3011 RMK A01 T01030011  RH  054%=      5-min Rain = 0
KWVS 180230Z 34005KT 10/01 A3011 RMK A01 T00990010  RH  055%=      5-min Rain = 0
KWVS 180235Z 34005KT 10/01 A3011 RMK A01 T00960010  RH  056%=      5-min Rain = 0
KWVS 180240Z 34005KT 10/01 A3011 RMK A01 T00950011  RH  057%=      5-min Rain = 0
KWVS 180245Z 34005KT 09/01 A3011 RMK A01 T00940010  RH  057%=      5-min Rain = 0
KWVS 180250Z 35005KT 09/01 A3011 RMK A01 T00940011  RH  057%=      5-min Rain = 0
KWVS 180255Z 35005KT 10/01 A3011 RMK A01 T00960010  RH  056%=      5-min Rain = 0
KWVS 180300Z 35005KT 10/01 A3011 RMK A01 T00950010  RH  056%=      5-min Rain = 0
KWVS 180305Z 00004KT 10/01 A3011 RMK A01 T00960010  RH  056%=      5-min Rain = 0
KWVS 180310Z 00004KT 10/01 A3011 RMK A01 T00980010  RH  055%=      5-min Rain = 0
KWVS 180315Z 36004KT 10/01 A3011 RMK A01 T00980010  RH  055%=      5-min Rain = 0
KWVS 180320Z 35003KT 10/01 A301 RMK A01 T00970010  RH  055%=      5-min Rain = 0
KWVS 180325Z 35004KT 10/01 A301 RMK A01 T00970009  RH  055%=      5-min Rain = 0
KWVS 180330Z 35004KT 10/01 A301 RMK A01 T00950009  RH  056%=      5-min Rain = 0
KWVS 180335Z 35005KT 09/01 A301 RMK A01 T00910009  RH  057%=      5-min Rain = 0
KWVS 180340Z 35006KT 09/01 A3009 RMK A01 T00860010  RH  059%=      5-min Rain = 0
KWVS 180345Z 35006KT 08/01 A3009 RMK A01 T00840010  RH  061%=      5-min Rain = 0
KWVS 180350Z 35006KT 08/01 A3009 RMK A01 T00840010  RH  061%=      5-min Rain = 0
KWVS 180355Z 35005KT 09/01 A3009 RMK A01 T00860010  RH  059%=      5-min Rain = 0
KWVS 180400Z 35004KT 09/01 A3009 RMK A01 T00870009  RH  059%=      5-min Rain = 0
KWVS 180405Z 36004KT 09/01 A3008 RMK A01 T00880009  RH  058%=      5-min Rain = 0
KWVS 180410Z 36004KT 09/01 A3008 RMK A01 T00870008  RH  059%=      5-min Rain = 0
KWVS 180415Z 36004KT 09/01 A3008 RMK A01 T00860009  RH  059%=      5-min Rain = 0
KWVS 180420Z 00004KT 09/01 A3008 RMK A01 T00880009  RH  058%=      5-min Rain = 0
KWVS 180425Z 00004KT 09/01 A3009 RMK A01 T00890009  RH  058%=      5-min Rain = 0
KWVS 180430Z 33002KT 09/01 A3009 RMK A01 T00880008  RH  058%=      5-min Rain = 0
KWVS 180435Z 32002KT 09/01 A3009 RMK A01 T00860009  RH  059%=      5-min Rain = 0
KWVS 180440Z 29003KT 09/01 A3009 RMK A01 T00910009  RH  057%=      5-min Rain = 0
KWVS 180445Z 26002KT 09/01 A3009 RMK A01 T00890009  RH  058%=      5-min Rain = 0
KWVS 180450Z 27002KT 09/01 A3009 RMK A01 T00880009  RH  058%=      5-min Rain = 0
KWVS 180455Z 28002KT 09/01 A3009 RMK A01 T00860009  RH  059%=      5-min Rain = 0
KWVS 180500Z 29001KT 09/01 A3009 RMK A01 T00850009  RH  060%=      5-min Rain = 0
KWVS 180505Z 28000KT 09/01 A3008 RMK A01 T00870009  RH  059%=      5-min Rain = 0
KWVS 180510Z 28000KT 09/01 A3008 RMK A01 T00900009  RH  057%=      5-min Rain = 0
KWVS 180515Z 25001KT 09/01 A3008 RMK A01 T00940009  RH  056%=      5-min Rain = 0
KWVS 180520Z 25001KT 10/01 A3008 RMK A01 T00950009  RH  056%=      5-min Rain = 0
KWVS 180525Z 25001KT 10/01 A3008 RMK A01 T00950009  RH  056%=      5-min Rain = 0
KWVS 180530Z 25002KT 10/01 A3008 RMK A01 T00950009  RH  056%=      5-min Rain = 0
KWVS 180535Z 25002KT 09/01 A3007 RMK A01 T00940009  RH  056%=      5-min Rain = 0
KWVS 180540Z 24002KT 09/01 A3007 RMK A01 T00940009  RH  056%=      5-min Rain = 0
KWVS 180545Z 23003KT 09/01 A3007 RMK A01 T00940009  RH  056%=      5-min Rain = 0
KWVS 180550Z 22004KT 09/01 A3007 RMK A01 T00910008  RH  057%=      5-min Rain = 0
KWVS 180555Z 21005KT 09/01 A3007 RMK A01 T00870008  RH  059%=      5-min Rain = 0

Page generated in 0.0093 seconds.